Time;durP1;ratioP1;P1;durP2;ratioP2;P2;SDS_P1;SDS_P2;PMS_P1;PMS_P2;Temp;Humidity;BMP_temperature;BMP_pressure;BME280_temperature;BME280_humidity;BME280_pressure;Samples;Min_cycle;Max_cycle;Signal;HPM_P1;HPM_P2
2022/04/04 05:36:34;;;;;;;;;6.50;5.25;;;;;17.25;48.73;101837.13;5098239;27;45436;-78
2022/04/04 05:39:00;;;;;;;;;5.75;5.75;;;;;17.42;48.87;101845.88;5088045;27;46542;-77
2022/04/04 05:41:27;;;;;;;;;5.00;5.00;;;;;17.65;48.57;101844.34;5096187;27;45416;-77
2022/04/04 05:43:53;;;;;;;;;9.00;7.50;;;;;17.94;48.32;101849.59;5089727;27;45319;-76
2022/04/04 05:46:18;;;;;;;;;7.50;7.00;;;;;18.25;48.10;101847.53;5085727;27;46036;-75
2022/04/04 05:48:44;;;;;;;;;6.50;6.50;;;;;18.57;47.68;101847.06;5086357;27;45464;-76
2022/04/04 05:51:12;;;;;;;;;7.00;7.00;;;;;18.89;47.31;101836.84;5086069;27;45643;-76
2022/04/04 05:53:37;;;;;;;;;7.00;7.00;;;;;19.21;46.67;101839.88;5101961;27;45771;-73
2022/04/04 05:56:03;;;;;;;;;8.00;8.00;;;;;19.52;46.51;101834.06;5085185;27;46064;-74
2022/04/04 05:58:28;;;;;;;;;6.50;6.50;;;;;19.79;45.93;101841.03;5087027;27;45595;-74
2022/04/04 06:00:54;;;;;;;;;9.00;9.00;;;;;20.04;45.20;101838.31;5084461;27;45456;-73
2022/04/04 06:03:20;;;;;;;;;7.25;7.25;;;;;20.26;44.33;101846.47;5087549;27;45585;-73
2022/04/04 06:05:49;;;;;;;;;9.75;8.25;;;;;20.46;44.16;101846.72;5086882;27;46580;-74
2022/04/04 06:08:14;;;;;;;;;7.00;5.33;;;;;20.66;43.96;101842.47;5085145;27;45415;-73
2022/04/04 06:10:40;;;;;;;;;8.75;8.25;;;;;20.86;43.18;101839.13;5088015;27;45652;-74
2022/04/04 06:13:05;;;;;;;;;12.75;9.25;;;;;21.00;43.14;101838.03;5088355;27;45452;-74
2022/04/04 06:15:30;;;;;;;;;9.75;7.75;;;;;21.17;42.70;101828.56;5091714;27;46402;-74
2022/04/04 06:17:56;;;;;;;;;11.50;11.25;;;;;21.30;42.43;101826.53;5088479;27;51606;-74
2022/04/04 06:20:21;;;;;;;;;11.00;9.00;;;;;21.43;41.94;101826.41;5090015;27;45376;-74
2022/04/04 06:22:47;;;;;;;;;10.00;7.33;;;;;21.57;42.29;101835.16;5084267;27;45462;-75
2022/04/04 06:25:12;;;;;;;;;8.00;7.75;;;;;21.68;41.91;101835.16;5086483;27;46087;-74
2022/04/04 06:27:39;;;;;;;;;8.33;8.33;;;;;21.78;41.53;101829.00;5083191;27;46439;-73
2022/04/04 06:30:06;;;;;;;;;9.00;9.00;;;;;21.87;40.92;101825.50;5085778;27;45548;-76
2022/04/04 06:32:33;;;;;;;;;11.33;8.67;;;;;21.96;41.43;101824.69;5084817;27;45536;-75
2022/04/04 06:34:58;;;;;;;;;11.00;10.00;;;;;22.09;41.27;101829.94;5087866;27;45510;-73
2022/04/04 06:37:24;;;;;;;;;9.00;9.00;;;;;22.18;41.97;101830.97;5086146;27;50595;-74
2022/04/04 06:39:49;;;;;;;;;9.33;9.00;;;;;22.27;41.66;101834.72;5086207;27;45524;-74
2022/04/04 06:42:15;;;;;;;;;10.00;8.33;;;;;22.34;41.36;101829.63;5086437;27;45532;-76
2022/04/04 06:44:42;;;;;;;;;10.00;8.00;;;;;22.43;41.71;101831.53;5089385;27;45510;-76
2022/04/04 06:47:08;;;;;;;;;13.33;10.33;;;;;22.49;41.41;101830.97;5079755;27;45588;-73
2022/04/04 06:49:33;;;;;;;;;7.67;6.33;;;;;22.55;41.00;101829.63;5076862;27;45405;-73
2022/04/04 06:51:58;;;;;;;;;8.00;8.00;;;;;22.60;41.05;101824.66;5072788;28;45473;-73
2022/04/04 06:54:24;;;;;;;;;7.00;7.00;;;;;22.65;41.13;101821.56;5072888;28;49810;-71
2022/04/04 06:56:49;;;;;;;;;9.33;9.33;;;;;22.69;40.26;101824.84;5072514;27;45621;-72
2022/04/04 06:59:16;;;;;;;;;9.00;9.00;;;;;22.70;40.32;101821.13;5073579;28;45393;-72
2022/04/04 07:01:43;;;;;;;;;11.33;11.00;;;;;22.72;40.59;101817.28;5071348;27;45477;-74
2022/04/04 07:04:09;;;;;;;;;10.67;10.00;;;;;22.74;40.51;101815.31;5070352;27;46126;-72
2022/04/04 07:06:35;;;;;;;;;9.67;9.33;;;;;22.76;39.93;101818.72;5069790;27;46047;-72
2022/04/04 07:09:01;;;;;;;;;10.33;10.33;;;;;22.76;39.82;101816.03;5068410;28;45485;-72
2022/04/04 07:11:26;;;;;;;;;11.33;10.00;;;;;22.79;39.42;101814.91;5073770;28;53179;-72
2022/04/04 07:13:52;;;;;;;;;12.00;8.00;;;;;22.81;39.88;101812.06;5070367;27;46180;-72
2022/04/04 07:16:17;;;;;;;;;11.33;8.00;;;;;22.81;39.47;101806.63;5071488;28;45432;-72
2022/04/04 07:18:43;;;;;;;;;13.33;11.33;;;;;22.84;39.22;101806.38;5072845;27;45549;-72
2022/04/04 07:21:08;;;;;;;;;8.33;8.00;;;;;22.86;39.43;101799.81;5070265;28;45461;-72
2022/04/04 07:23:34;;;;;;;;;10.00;9.33;;;;;22.87;39.12;101800.66;5074382;27;52344;-72
2022/04/04 07:25:59;;;;;;;;;12.33;10.67;;;;;22.88;39.14;101794.25;5067604;28;45483;-72
2022/04/04 07:28:25;;;;;;;;;11.67;8.67;;;;;22.89;38.96;101790.56;5068525;27;45496;-73
2022/04/04 07:30:52;;;;;;;;;10.33;9.00;;;;;22.89;38.84;101798.69;5068458;27;45512;-72
2022/04/04 07:33:18;;;;;;;;;12.33;10.33;;;;;22.90;38.47;101789.56;5064372;28;46556;-74
2022/04/04 07:35:44;;;;;;;;;11.33;11.00;;;;;22.90;38.58;101798.53;5060045;28;45755;-74
2022/04/04 07:38:11;;;;;;;;;9.00;7.67;;;;;22.89;38.94;101788.69;5064570;27;45433;-75
2022/04/04 07:40:37;;;;;;;;;9.67;8.00;;;;;22.92;38.35;101790.28;5064710;27;45447;-74
2022/04/04 07:43:02;;;;;;;;;10.33;8.00;;;;;22.93;38.31;101783.84;5067248;27;46154;-73
2022/04/04 07:45:29;;;;;;;;;9.00;7.00;;;;;22.92;38.43;101782.16;5069677;27;45556;-73
2022/04/04 07:47:55;;;;;;;;;7.33;7.33;;;;;22.94;38.66;101787.44;5071601;27;45496;-75
2022/04/04 07:50:21;;;;;;;;;9.67;7.33;;;;;22.94;38.64;101782.88;5070537;27;45532;-73
2022/04/04 07:52:46;;;;;;;;;9.00;8.00;;;;;22.96;38.40;101778.19;5070922;28;45576;-73
2022/04/04 07:55:12;;;;;;;;;9.00;9.00;;;;;22.97;38.53;101768.22;5068978;28;45380;-73
2022/04/04 07:57:39;;;;;;;;;9.00;8.33;;;;;22.97;38.12;101771.75;5064634;27;45562;-73
2022/04/04 08:00:07;;;;;;;;;8.33;8.33;;;;;22.99;38.47;101768.91;5064703;27;45453;-74
2022/04/04 08:02:32;;;;;;;;;8.00;8.00;;;;;23.00;38.09;101766.06;5071002;27;45594;-73
2022/04/04 08:04:58;;;;;;;;;9.67;7.67;;;;;23.01;38.36;101765.06;5067224;27;45532;-75
2022/04/04 08:07:23;;;;;;;;;9.00;9.00;;;;;22.98;37.75;101768.09;5069830;28;45519;-75
2022/04/04 08:09:48;;;;;;;;;8.33;8.33;;;;;22.98;38.04;101759.97;5067370;27;45620;-75
2022/04/04 08:12:14;;;;;;;;;9.33;8.00;;;;;22.97;37.51;101757.38;5069523;28;45394;-75
2022/04/04 08:14:39;;;;;;;;;9.33;8.00;;;;;22.98;37.69;101756.38;5074188;28;45385;-75
2022/04/04 08:17:05;;;;;;;;;13.00;8.33;;;;;22.98;38.05;101748.25;5070236;28;45428;-75
2022/04/04 08:19:32;;;;;;;;;8.00;8.00;;;;;22.99;37.83;101741.84;5068855;27;45469;-75
2022/04/04 08:21:57;;;;;;;;;8.67;8.00;;;;;23.01;37.73;101748.81;5063015;28;46211;-75
2022/04/04 08:24:23;;;;;;;;;10.33;8.33;;;;;22.99;37.79;101750.84;5061135;27;46111;-75
2022/04/04 08:26:49;;;;;;;;;12.67;10.00;;;;;22.99;37.75;101747.25;5067656;28;45720;-75
2022/04/04 08:29:15;;;;;;;;;10.00;7.00;;;;;22.98;37.92;101740.13;5072696;28;45586;-75
2022/04/04 08:31:40;;;;;;;;;7.67;7.00;;;;;22.97;38.05;101743.84;5068390;27;45564;-76
2022/04/04 08:34:06;;;;;;;;;8.33;7.33;;;;;23.00;37.68;101744.41;5072733;27;56516;-75
2022/04/04 08:36:32;;;;;;;;;7.33;7.33;;;;;23.02;38.25;101733.44;5070839;27;45695;-74
2022/04/04 08:38:57;;;;;;;;;8.33;7.00;;;;;23.03;38.16;101741.44;5071920;27;45488;-74
2022/04/04 08:41:25;;;;;;;;;10.67;8.33;;;;;23.04;38.25;101723.31;5070675;28;45818;-75
2022/04/04 08:43:55;;;;;;;;;6.33;5.33;;;;;23.07;38.45;101725.75;5068831;27;46067;-76
2022/04/04 08:46:22;;;;;;;;;7.33;7.00;;;;;23.11;38.57;101731.75;5071650;27;45623;-76
2022/04/04 08:48:48;;;;;;;;;9.00;7.00;;;;;23.13;38.08;101730.59;5070447;27;45502;-76
2022/04/04 08:51:14;;;;;;;;;6.00;6.00;;;;;23.15;38.40;101720.50;5069113;27;45474;-75
2022/04/04 08:53:40;;;;;;;;;8.33;7.00;;;;;23.18;38.38;101722.06;5073802;27;45525;-76
2022/04/04 08:56:06;;;;;;;;;6.33;5.67;;;;;23.17;38.49;101715.78;5069457;27;45439;-76
2022/04/04 08:58:33;;;;;;;;;8.67;7.67;;;;;23.20;38.27;101716.47;5069349;27;45945;-74
2022/04/04 09:00:59;;;;;;;;;8.00;8.00;;;;;23.20;38.40;101711.94;5071312;27;45670;-75
2022/04/04 09:03:29;;;;;;;;;9.67;6.67;;;;;23.23;37.91;101708.06;5071476;27;45519;-73
2022/04/04 09:06:06;;;;;;;;;8.33;7.00;;;;;23.23;38.25;101708.94;5067207;27;45447;-74
2022/04/04 09:08:44;;;;;;;;;5.00;5.00;;;;;23.24;38.12;101705.22;5072450;27;45484;-74
2022/04/04 09:11:10;;;;;;;;;5.33;5.33;;;;;23.26;37.57;101705.09;5067705;27;47648;-75
2022/04/04 09:13:35;;;;;;;;;7.00;5.67;;;;;23.23;38.00;101692.69;5070698;27;45467;-75
2022/04/04 09:16:06;;;;;;;;;5.00;5.00;;;;;23.26;37.52;101705.94;5070192;27;45531;-77
2022/04/04 09:18:37;;;;;;;;;8.00;8.00;;;;;23.26;37.40;101700.50;5074525;27;45417;-76
2022/04/04 09:21:13;;;;;;;;;8.67;5.67;;;;;23.25;37.56;101696.09;5058220;27;46004;-77
2022/04/04 09:23:45;;;;;;;;;4.67;4.67;;;;;23.26;37.89;101694.25;5070435;28;45613;-76
2022/04/04 09:26:52;;;;;;;;;5.67;5.67;;;;;23.27;37.72;101691.41;5076589;27;46037;-75
2022/04/04 09:29:20;;;;;;;;;4.67;4.67;;;;;23.28;37.58;101684.13;5065372;27;45453;-76
2022/04/04 09:31:53;;;;;;;;;6.67;4.33;;;;;23.28;37.64;101687.69;5069011;27;46174;-76
2022/04/04 09:34:19;;;;;;;;;8.00;6.67;;;;;23.28;37.52;101676.00;5084982;27;45576;-76
2022/04/04 09:36:46;;;;;;;;;4.00;4.00;;;;;23.30;37.72;101680.28;5068864;27;45481;-73
2022/04/04 09:39:13;;;;;;;;;9.33;6.00;;;;;23.31;37.62;101681.13;5064205;27;45572;-73
2022/04/04 09:41:39;;;;;;;;;6.00;6.00;;;;;23.29;37.16;101666.88;5070663;28;45583;-73
2022/04/04 09:44:05;;;;;;;;;7.67;5.00;;;;;23.31;37.62;101667.59;5066323;27;45559;-73
2022/04/04 09:46:36;;;;;;;;;5.00;5.00;;;;;23.29;37.52;101673.16;5070630;28;45461;-73
2022/04/04 09:49:06;;;;;;;;;4.00;4.00;;;;;23.30;37.27;101660.47;5067171;28;45528;-73
2022/04/04 09:51:45;;;;;;;;;6.67;6.00;;;;;23.29;37.28;101658.75;5065950;27;46404;-76
2022/04/04 09:54:23;;;;;;;;;5.00;5.00;;;;;23.29;37.07;101659.59;5062488;27;46952;-74
2022/04/04 09:56:50;;;;;;;;;3.33;3.33;;;;;23.29;37.45;101651.47;5062459;27;46964;-74
2022/04/04 09:59:17;;;;;;;;;4.67;4.67;;;;;23.28;37.15;101647.06;5069371;27;45502;-75
2022/04/04 10:01:45;;;;;;;;;4.33;4.33;;;;;23.30;37.11;101655.91;5071627;27;46174;-77
2022/04/04 10:04:14;;;;;;;;;6.33;5.00;;;;;23.30;37.48;101642.34;5068864;27;45443;-76
2022/04/04 10:06:42;;;;;;;;;4.67;4.67;;;;;23.32;37.59;101641.34;5069557;27;45337;-77
2022/04/04 10:09:08;;;;;;;;;3.67;3.67;;;;;23.32;37.52;101644.06;5053851;27;45549;-78
2022/04/04 10:11:35;;;;;;;;;4.00;4.00;;;;;23.35;37.53;101641.97;5072997;27;46028;-77
2022/04/04 10:14:01;;;;;;;;;6.00;4.00;;;;;23.37;38.10;101636.38;5068454;27;45769;-78
2022/04/04 10:16:26;;;;;;;;;4.00;4.00;;;;;23.43;38.07;101633.09;5069154;28;45376;-78
2022/04/04 10:18:57;;;;;;;;;4.33;4.33;;;;;23.48;37.68;101625.38;5070504;27;45493;-77
2022/04/04 10:21:25;;;;;;;;;5.00;3.67;;;;;23.52;37.83;101640.34;5070039;28;45549;-78
2022/04/04 10:23:53;;;;;;;;;4.00;4.00;;;;;23.55;37.89;101625.66;5058528;27;45351;-76
2022/04/04 10:26:21;;;;;;;;;7.00;4.67;;;;;23.59;37.52;101621.66;5060125;28;45383;-77
2022/04/04 10:28:48;;;;;;;;;6.00;6.00;;;;;23.60;37.87;101615.22;5068457;27;45557;-78
2022/04/04 10:31:19;;;;;;;;;5.00;5.00;;;;;23.62;38.04;101618.63;5079189;27;45451;-77
2022/04/04 10:33:49;;;;;;;;;5.00;3.33;;;;;23.65;37.89;101606.63;5070463;27;46000;-77
2022/04/04 10:36:25;;;;;;;;;3.67;3.00;;;;;23.68;38.24;101600.94;5072490;28;45567;-74
2022/04/04 10:38:51;;;;;;;;;2.00;2.00;;;;;23.69;37.79;101606.22;5086033;27;45466;-75
2022/04/04 10:41:19;;;;;;;;;3.67;3.67;;;;;23.73;38.23;101597.75;5074930;28;47906;-76
2022/04/04 10:43:47;;;;;;;;;3.00;3.00;;;;;23.75;38.01;101599.31;5075521;27;45654;-75
2022/04/04 10:46:15;;;;;;;;;5.33;4.67;;;;;23.78;37.98;101592.75;5071857;27;45542;-75
2022/04/04 10:48:42;;;;;;;;;3.67;3.33;;;;;23.81;37.79;101587.91;5072362;27;45838;-75
2022/04/04 10:51:17;;;;;;;;;2.33;2.33;;;;;23.85;36.24;101585.72;5072563;27;45434;-72
2022/04/04 10:53:57;;;;;;;;;6.67;5.00;;;;;23.79;31.74;101586.34;5059862;27;45387;-72
2022/04/04 10:56:46;;;;;;;;;3.33;3.00;;;;;23.58;30.05;101575.72;5073496;28;45387;-72
2022/04/04 10:59:32;;;;;;;;;2.00;2.00;;;;;23.40;29.22;101569.22;5069261;27;45415;-72
2022/04/04 11:02:02;;;;;;;;;4.00;2.00;;;;;23.21;28.04;101571.97;5071194;27;48454;-72
2022/04/04 11:04:30;;;;;;;;;2.33;2.33;;;;;23.02;27.53;101565.59;5069305;27;45675;-72
2022/04/04 11:09:55;;;;;;;;;4.00;4.00;;;;;22.64;27.06;101558.22;5058091;28;45480;-73
2022/04/04 11:12:23;;;;;;;;;4.00;4.00;;;;;22.52;26.85;101551.19;5056242;28;46260;-72
2022/04/04 11:14:57;;;;;;;;;3.00;3.00;;;;;22.37;26.46;101548.91;5067886;28;45497;-72
2022/04/04 11:20:31;;;;;;;;;4.67;4.00;;;;;22.12;26.81;101536.81;5064946;27;45483;-72
2022/04/04 11:22:57;;;;;;;;;2.00;2.00;;;;;22.08;26.66;101543.47;5059881;28;47456;-72
2022/04/04 11:25:27;;;;;;;;;2.33;2.33;;;;;22.04;26.74;101526.69;5061389;28;45472;-72
2022/04/04 11:27:52;;;;;;;;;2.33;2.33;;;;;21.96;26.20;101531.94;5071121;27;45802;-72
2022/04/04 11:30:20;;;;;;;;;4.00;2.67;;;;;21.92;25.86;101520.56;5064157;28;45547;-72
2022/04/04 11:32:49;;;;;;;;;3.67;3.67;;;;;21.88;25.77;101519.13;5071283;28;47202;-72
2022/04/04 11:35:21;;;;;;;;;4.00;3.00;;;;;21.78;26.04;101518.25;5072187;28;48422;-72
2022/04/04 11:37:54;;;;;;;;;4.33;4.33;;;;;21.70;25.71;101510.75;5067890;28;45508;-72
2022/04/04 11:40:25;;;;;;;;;3.00;3.00;;;;;21.64;25.43;101508.63;5067426;27;45675;-72
2022/04/04 11:42:51;;;;;;;;;2.00;2.00;;;;;21.58;25.74;101502.78;5070942;28;46381;-72
2022/04/04 11:45:22;;;;;;;;;2.00;2.00;;;;;21.55;25.00;101500.34;5057985;28;45540;-74
2022/04/04 11:47:49;;;;;;;;;8.00;3.33;;;;;21.51;27.70;101490.84;5069062;28;45599;-76
2022/04/04 11:50:16;;;;;;;;;4.00;4.00;;;;;21.61;29.58;101487.31;5074521;27;45496;-78
2022/04/04 11:52:54;;;;;;;;;4.00;2.67;;;;;21.73;30.99;101480.81;5078799;27;45943;-80
2022/04/04 11:55:22;;;;;;;;;2.00;2.00;;;;;21.88;30.99;101475.00;5072322;27;45465;-79
2022/04/04 11:57:49;;;;;;;;;2.00;2.00;;;;;22.00;31.95;101464.94;5062469;28;45517;-78
2022/04/04 12:00:37;;;;;;;;;3.33;2.33;;;;;22.15;32.49;101463.50;5069294;28;45423;-79
2022/04/04 12:03:15;;;;;;;;;2.00;2.00;;;;;22.29;32.47;101462.25;5071879;27;46172;-79
2022/04/04 12:05:45;;;;;;;;;3.00;3.00;;;;;22.40;32.72;101454.97;5073912;27;45401;-78
2022/04/04 12:08:12;;;;;;;;;3.00;3.00;;;;;22.52;33.16;101451.09;5075568;27;45797;-80
2022/04/04 12:10:39;;;;;;;;;2.33;2.33;;;;;22.60;33.51;101448.56;5070656;28;45469;-79
2022/04/04 12:13:08;;;;;;;;;3.00;3.00;;;;;22.69;33.96;101454.97;5075240;27;45516;-78
2022/04/04 12:15:45;;;;;;;;;3.67;2.33;;;;;22.79;33.75;101454.06;5070253;27;45539;-74
2022/04/04 12:18:30;;;;;;;;;3.67;3.33;;;;;22.86;33.44;101447.09;5081534;27;45587;-75
2022/04/04 12:20:59;;;;;;;;;2.33;2.33;;;;;22.90;33.48;101435.81;5072950;27;45499;-74
2022/04/04 12:26:13;;;;;;;;;5.33;3.67;;;;;22.99;34.13;101441.34;5072231;27;45428;-75
2022/04/04 12:28:52;;;;;;;;;4.67;3.00;;;;;23.03;33.86;101440.91;5075906;27;45406;-75
2022/04/04 12:31:19;;;;;;;;;4.00;4.00;;;;;23.08;34.01;101428.75;5070545;27;45492;-77
2022/04/04 12:33:45;;;;;;;;;5.33;5.00;;;;;23.11;34.54;101426.63;5062898;27;47102;-76
2022/04/04 12:36:12;;;;;;;;;4.00;3.33;;;;;23.13;34.42;101424.59;5076531;27;45640;-76
2022/04/04 12:38:39;;;;;;;;;3.33;2.67;;;;;23.19;34.31;101433.13;5082191;27;45488;-76
2022/04/04 12:41:15;;;;;;;;;4.33;3.00;;;;;23.22;34.95;101432.84;5072267;27;45569;-76
2022/04/04 12:43:43;;;;;;;;;5.67;3.67;;;;;23.25;34.15;101421.69;5067137;28;45461;-77
2022/04/04 12:46:30;;;;;;;;;4.33;4.33;;;;;23.27;34.66;101420.56;5071166;27;45464;-78
2022/04/04 12:49:30;;;;;;;;;4.00;3.67;;;;;23.29;34.47;101414.97;5065138;27;45526;-76
2022/04/04 12:52:05;;;;;;;;;2.67;2.67;;;;;23.34;34.68;101418.13;5069031;28;45629;-76
2022/04/04 12:54:36;;;;;;;;;3.33;1.67;;;;;23.37;35.03;101419.66;5081708;27;46585;-76
2022/04/04 12:57:04;;;;;;;;;5.00;3.00;;;;;23.41;34.86;101418.38;5071119;27;45405;-77
2022/04/04 12:59:46;;;;;;;;;5.67;3.33;;;;;23.44;35.11;101412.66;5063310;27;45457;-78
2022/04/04 13:02:13;;;;;;;;;3.33;2.67;;;;;23.47;35.06;101417.78;5068610;27;45488;-77
2022/04/04 13:04:39;;;;;;;;;2.67;2.00;;;;;23.50;34.93;101428.28;5069158;27;46379;-77
2022/04/04 13:07:14;;;;;;;;;3.00;3.00;;;;;23.54;34.97;101409.91;5071365;27;45848;-77
2022/04/04 13:09:49;;;;;;;;;2.67;2.67;;;;;23.55;34.89;101407.00;5070059;28;45595;-77
2022/04/04 13:12:42;;;;;;;;;4.00;4.00;;;;;23.57;35.04;101403.31;5068571;27;45651;-76
2022/04/04 13:15:08;;;;;;;;;3.67;3.67;;;;;23.56;35.04;101391.63;5066199;27;56119;-76
2022/04/04 13:17:35;;;;;;;;;3.00;2.67;;;;;23.58;35.29;101389.59;5070515;28;45465;-77
2022/04/04 13:20:01;;;;;;;;;4.67;3.00;;;;;23.59;35.03;101396.75;5067532;27;45687;-78
2022/04/04 13:22:26;;;;;;;;;4.00;3.00;;;;;23.60;35.13;101392.16;5068235;27;45628;-79
2022/04/04 13:24:51;;;;;;;;;3.33;3.33;;;;;23.58;35.33;101372.50;5069768;27;46005;-78
2022/04/04 13:27:21;;;;;;;;;6.67;3.67;;;;;23.64;35.35;101388.13;5068800;27;52234;-78
2022/04/04 13:29:46;;;;;;;;;3.33;3.33;;;;;23.65;35.45;101379.00;5073137;27;45383;-77
2022/04/04 13:32:12;;;;;;;;;3.00;3.00;;;;;23.66;35.61;101375.28;5069611;27;52767;-77
2022/04/04 13:34:37;;;;;;;;;1.33;1.33;;;;;23.68;35.41;101374.16;5068976;27;45442;-77
2022/04/04 13:37:03;;;;;;;;;3.67;3.00;;;;;23.72;35.62;101380.09;5069775;27;52237;-76
2022/04/04 13:39:28;;;;;;;;;5.00;2.00;;;;;23.75;35.57;101381.66;5066780;27;45481;-76
2022/04/04 13:41:54;;;;;;;;;2.33;1.33;;;;;23.77;35.96;101374.19;5070731;27;45391;-76
2022/04/04 13:44:19;;;;;;;;;1.00;1.00;;;;;23.80;35.28;101379.31;5071775;27;45456;-77
2022/04/04 13:46:44;;;;;;;;;4.00;2.00;;;;;23.80;35.61;101373.91;5066889;27;45708;-76
2022/04/04 13:49:10;;;;;;;;;2.00;1.33;;;;;23.80;36.03;101374.72;5064673;27;45855;-78
2022/04/04 13:51:35;;;;;;;;;3.00;3.00;;;;;23.81;35.96;101368.34;5067152;27;45411;-75
2022/04/04 13:54:02;;;;;;;;;1.33;0.67;;;;;23.82;35.85;101363.75;5071478;27;45393;-77
2022/04/04 13:56:30;;;;;;;;;3.00;3.00;;;;;23.83;36.07;101365.47;5071681;27;45475;-77
2022/04/04 13:58:56;;;;;;;;;3.00;3.00;;;;;23.82;35.94;101370.03;5068695;27;45489;-77
2022/04/04 14:01:26;;;;;;;;;4.00;2.00;;;;;23.82;35.66;101361.91;5074683;27;45486;-76
2022/04/04 14:03:52;;;;;;;;;4.00;2.00;;;;;23.81;36.36;101367.47;5070320;27;45646;-78
2022/04/04 14:06:18;;;;;;;;;3.00;3.00;;;;;23.81;36.17;101354.78;5071374;27;45395;-78
2022/04/04 14:08:44;;;;;;;;;2.33;2.33;;;;;23.82;36.28;101361.03;5075769;27;45476;-77
2022/04/04 14:11:11;;;;;;;;;1.00;1.00;;;;;23.82;35.97;101361.03;5072349;27;45343;-75
2022/04/04 14:13:38;;;;;;;;;4.00;3.00;;;;;23.83;36.38;101351.91;5070014;27;45449;-76
2022/04/04 14:16:05;;;;;;;;;3.00;3.00;;;;;23.84;35.42;101344.63;5069151;27;45566;-77
2022/04/04 14:18:31;;;;;;;;;4.67;2.00;;;;;23.81;35.47;101351.22;5073438;27;45592;-80
2022/04/04 14:20:58;;;;;;;;;5.67;4.00;;;;;23.78;35.81;101336.09;5071905;27;45488;-80
2022/04/04 14:23:23;;;;;;;;;7.33;4.33;;;;;23.77;35.87;101330.84;5072431;27;46939;-81
2022/04/04 14:25:48;;;;;;;;;4.00;4.00;;;;;23.76;35.89;101323.72;5068569;27;45488;-82
2022/04/04 14:28:15;;;;;;;;;3.00;2.67;;;;;23.75;35.95;101322.84;5070543;27;45560;-80
2022/04/04 14:30:40;;;;;;;;;3.00;3.00;;;;;23.74;35.78;101315.75;5071123;27;45477;-82
2022/04/04 14:33:07;;;;;;;;;3.00;2.00;;;;;23.74;36.04;101325.75;5071289;28;45517;-82
2022/04/04 14:35:32;;;;;;;;;5.33;3.67;;;;;23.74;35.97;101320.34;5074782;27;45476;-80
2022/04/04 14:37:57;;;;;;;;;2.33;2.00;;;;;23.72;36.25;101306.94;5068224;27;45561;-80
2022/04/04 14:40:23;;;;;;;;;2.00;2.00;;;;;23.72;36.29;101306.94;5063729;27;45627;-80
2022/04/04 14:42:48;;;;;;;;;2.00;2.00;;;;;23.71;36.37;101304.38;5076096;27;46146;-78
2022/04/04 14:45:14;;;;;;;;;2.33;2.33;;;;;23.71;36.38;101304.38;5072665;27;51905;-79
2022/04/04 14:47:39;;;;;;;;;2.67;2.00;;;;;23.71;36.14;101309.78;5071875;28;45414;-76
2022/04/04 14:50:07;;;;;;;;;5.00;3.33;;;;;23.72;36.72;101308.78;5073023;28;45647;-77
2022/04/04 14:52:37;;;;;;;;;2.67;2.00;;;;;23.73;36.69;101300.50;5073553;27;46195;-78
2022/04/04 14:55:06;;;;;;;;;2.33;1.33;;;;;23.75;36.62;101300.34;5077414;27;45409;-77
2022/04/04 14:57:32;;;;;;;;;1.33;1.33;;;;;23.76;36.97;101310.16;5072248;28;45413;-77
2022/04/04 14:59:58;;;;;;;;;1.67;1.67;;;;;23.78;36.60;101302.72;5073400;27;45775;-82
2022/04/04 15:02:24;;;;;;;;;4.00;3.33;;;;;23.76;36.89;101299.31;5073392;28;46453;-76
2022/04/04 15:04:49;;;;;;;;;4.00;3.67;;;;;23.76;36.59;101307.47;5069860;27;60230;-77
2022/04/04 15:07:14;;;;;;;;;4.00;4.00;;;;;23.76;36.75;101307.47;5070269;28;62963;-76
2022/04/04 15:09:40;;;;;;;;;4.00;3.00;;;;;23.73;36.70;101300.50;5072748;27;45783;-76
2022/04/04 15:12:08;;;;;;;;;1.33;1.00;;;;;23.73;37.05;101305.06;5068254;28;45495;-78
2022/04/04 15:14:34;;;;;;;;;5.00;3.67;;;;;23.74;37.15;101295.94;5074375;27;45355;-77
2022/04/04 15:16:59;;;;;;;;;2.00;2.00;;;;;23.73;36.94;101299.63;5071272;28;45305;-77
2022/04/04 15:19:24;;;;;;;;;6.00;1.33;;;;;23.73;36.97;101294.22;5071343;27;48324;-78
2022/04/04 15:21:50;;;;;;;;;2.00;2.00;;;;;23.72;36.77;101293.38;5068700;27;53559;-78
2022/04/04 15:24:15;;;;;;;;;2.67;1.00;;;;;23.73;36.92;101294.22;5063040;27;45595;-77
2022/04/04 15:26:41;;;;;;;;;2.00;2.00;;;;;23.73;37.11;101286.06;5074826;27;45475;-79
2022/04/04 15:29:06;;;;;;;;;3.00;1.33;;;;;23.73;36.89;101273.38;5072612;27;45591;-80
2022/04/04 15:31:32;;;;;;;;;1.33;1.33;;;;;23.74;37.15;101276.97;5070247;27;46086;-77
2022/04/04 15:33:59;;;;;;;;;2.00;1.67;;;;;23.72;37.35;101279.81;5068032;27;45500;-78
2022/04/04 15:36:25;;;;;;;;;5.67;2.33;;;;;23.76;37.20;101266.81;5069477;28;45447;-78
2022/04/04 15:38:54;;;;;;;;;3.67;3.00;;;;;23.78;37.33;101270.19;5072522;27;45454;-78
2022/04/04 15:41:25;;;;;;;;;2.67;1.67;;;;;23.81;37.24;101267.19;5070347;27;45693;-77
2022/04/04 15:43:53;;;;;;;;;1.00;1.00;;;;;23.79;36.94;101275.47;5064640;27;45468;-79
2022/04/04 16:47:11;;;;;;;;;9.00;4.67;;;;;19.56;43.48;101267.38;5073702;27;45919;-79
2022/04/04 16:49:37;;;;;;;;;5.67;5.67;;;;;19.73;43.80;101257.88;5068666;27;45406;-77
2022/04/04 16:52:02;;;;;;;;;6.00;3.33;;;;;19.98;43.52;101260.31;5063790;28;45537;-78
2022/04/04 16:54:28;;;;;;;;;6.67;5.33;;;;;20.25;42.80;101258.91;5050463;28;45490;-79
2022/04/04 16:56:53;;;;;;;;;3.00;3.00;;;;;20.55;42.74;101270.69;5068981;28;46300;-80
2022/04/04 16:59:18;;;;;;;;;4.00;2.33;;;;;20.85;42.48;101268.94;5063699;28;45699;-79
2022/04/04 17:01:44;;;;;;;;;4.00;4.00;;;;;21.14;42.12;101272.72;5054544;28;51537;-77
2022/04/04 17:04:10;;;;;;;;;4.33;4.33;;;;;21.40;41.22;101273.03;5062957;28;45462;-78
2022/04/04 17:06:35;;;;;;;;;5.33;3.67;;;;;21.65;41.25;101259.09;5066377;28;45558;-79
2022/04/04 17:09:01;;;;;;;;;5.67;2.00;;;;;21.89;40.88;101265.91;5056247;28;45740;-80
2022/04/04 17:11:26;;;;;;;;;4.00;4.00;;;;;22.11;40.66;101265.59;5063155;28;45842;-77
2022/04/04 17:13:51;;;;;;;;;8.33;5.33;;;;;22.31;40.04;101267.41;5056484;28;45449;-78
2022/04/04 17:16:16;;;;;;;;;3.00;3.00;;;;;22.47;39.72;101264.03;5054945;28;46501;-76
2022/04/04 17:18:42;;;;;;;;;3.00;3.00;;;;;22.62;39.14;101265.31;5056492;28;45571;-78
